createdAt,value
2023-05-08T00:04:24.084Z,4.03
2023-05-08T00:09:26.116Z,3.70
2023-05-08T00:14:27.909Z,3.80
2023-05-08T00:19:29.803Z,2.50
2023-05-08T00:24:31.596Z,4.60
2023-05-08T00:29:33.934Z,4.37
2023-05-08T00:34:36.341Z,4.13
2023-05-08T00:39:38.139Z,4.23
2023-05-08T00:44:40.185Z,4.53
2023-05-08T00:49:43.095Z,4.40
2023-05-08T00:54:46.429Z,4.27
2023-05-08T00:59:50.483Z,5.00
2023-05-08T01:04:54.814Z,4.40
2023-05-08T01:09:56.619Z,4.30
2023-05-08T01:15:33.038Z,4.37
2023-05-08T01:21:13.976Z,5.40
2023-05-08T01:26:51.668Z,4.83
2023-05-08T01:32:16.463Z,4.67
2023-05-08T01:37:35.609Z,5.37
2023-05-08T01:42:55.116Z,4.67
2023-05-08T01:48:26.681Z,5.10
2023-05-08T01:53:34.757Z,4.47
2023-05-08T01:58:39.130Z,5.20
2023-05-08T02:03:46.566Z,4.20
2023-05-08T02:08:51.352Z,5.33
2023-05-08T02:13:55.301Z,4.60
2023-05-08T02:19:01.913Z,5.97
2023-05-08T02:24:06.318Z,5.70
2023-05-08T02:29:09.391Z,4.40
2023-05-08T02:34:12.817Z,4.93
2023-05-08T02:39:17.244Z,5.43
2023-05-08T02:44:19.513Z,5.57
2023-05-08T02:49:55.031Z,4.90
2023-05-08T02:55:49.291Z,5.60
2023-05-08T03:01:19.341Z,5.67
2023-05-08T03:06:26.154Z,6.20
2023-05-08T03:11:41.166Z,5.20
2023-05-08T03:16:47.773Z,5.70
2023-05-08T03:21:53.227Z,6.60
2023-05-08T03:26:59.022Z,5.30
2023-05-08T03:32:03.702Z,4.40
2023-05-08T03:37:06.150Z,5.30
2023-05-08T03:42:08.134Z,6.13
2023-05-08T03:47:10.734Z,5.87
2023-05-08T03:52:14.713Z,6.13
2023-05-08T03:57:16.586Z,5.07
2023-05-08T04:02:40.149Z,5.00
2023-05-08T04:07:56.825Z,5.70
2023-05-08T04:13:19.938Z,6.37
2023-05-08T04:18:30.245Z,5.50
2023-05-08T04:23:35.317Z,6.20
2023-05-08T04:28:40.647Z,6.13
2023-05-08T04:33:45.161Z,5.80
2023-05-08T04:38:46.977Z,4.30
2023-05-08T04:43:49.755Z,4.87
2023-05-08T04:48:51.577Z,5.80
2023-05-08T04:53:53.414Z,5.93
2023-05-08T04:58:55.199Z,6.00
2023-05-08T05:03:57.021Z,4.63
2023-05-08T05:08:58.822Z,4.27
2023-05-08T05:14:00.825Z,3.27
2023-05-08T05:19:02.670Z,5.30
2023-05-08T05:24:07.723Z,3.70
2023-05-08T05:29:09.520Z,3.97
2023-05-08T05:34:11.254Z,5.37
2023-05-08T05:39:13.199Z,4.40
2023-05-08T05:44:14.971Z,3.47
2023-05-08T05:49:16.793Z,5.07
2023-05-08T05:54:18.546Z,4.50
2023-05-08T05:59:20.329Z,4.07
2023-05-08T06:04:23.252Z,3.43
2023-05-08T06:09:25.056Z,2.23
2023-05-08T06:14:26.943Z,3.70
2023-05-08T06:19:28.718Z,3.13
2023-05-08T06:24:30.720Z,2.70
2023-05-08T06:29:32.542Z,3.33
2023-05-08T06:34:34.632Z,3.40
2023-05-08T06:39:36.603Z,3.10
2023-05-08T06:44:38.502Z,2.73
2023-05-08T06:49:40.222Z,2.63
2023-05-08T06:54:42.107Z,2.70
2023-05-08T06:59:43.980Z,2.40
2023-05-08T07:04:45.927Z,2.37
2023-05-08T07:09:47.804Z,2.63
2023-05-08T07:14:50.274Z,2.60
2023-05-08T07:19:52.141Z,2.17
2023-05-08T07:24:53.880Z,2.67
2023-05-08T07:29:57.437Z,2.90
2023-05-08T07:34:59.328Z,1.87
2023-05-08T07:40:01.217Z,3.00
2023-05-08T07:45:03.088Z,2.63
2023-05-08T07:50:06.380Z,2.90
2023-05-08T07:55:08.933Z,3.10
2023-05-08T08:00:15.822Z,2.20
2023-05-08T08:05:17.606Z,2.90
2023-05-08T08:10:19.583Z,2.87
2023-05-08T08:15:21.382Z,2.40
2023-05-08T08:20:23.491Z,2.50
2023-05-08T08:25:25.593Z,2.10
2023-05-08T08:30:27.402Z,2.50
2023-05-08T08:35:30.281Z,2.10
2023-05-08T08:40:32.274Z,2.30
2023-05-08T08:45:34.314Z,2.47
2023-05-08T08:50:41.617Z,2.07
2023-05-08T08:55:52.476Z,1.90
2023-05-08T09:00:56.153Z,2.40
2023-05-08T09:06:01.436Z,2.63
2023-05-08T09:11:03.412Z,2.33
2023-05-08T09:16:06.233Z,2.10
2023-05-08T09:21:08.121Z,2.07
2023-05-08T09:26:09.934Z,1.57
2023-05-08T09:31:11.712Z,1.70
2023-05-08T09:36:28.772Z,2.37
2023-05-08T09:41:30.670Z,2.40
2023-05-08T09:46:34.554Z,2.00
2023-05-08T09:51:36.417Z,1.90
2023-05-08T09:56:40.117Z,1.90
2023-05-08T10:01:42.062Z,2.27
2023-05-08T10:06:44.429Z,2.60
2023-05-08T10:11:54.439Z,2.00
2023-05-08T10:17:00.079Z,2.40
2023-05-08T10:22:05.473Z,2.23
2023-05-08T10:27:27.964Z,2.10
2023-05-08T10:32:40.704Z,2.00
2023-05-08T10:37:47.545Z,2.80
2023-05-08T10:42:50.778Z,1.60
2023-05-08T10:49:08.995Z,2.10
2023-05-08T10:55:09.340Z,2.60
2023-05-08T11:00:12.181Z,2.33
2023-05-08T11:05:19.013Z,2.13
2023-05-08T11:10:21.956Z,2.23
2023-05-08T11:15:42.055Z,1.83
2023-05-08T11:21:04.230Z,2.33
2023-05-08T11:26:14.843Z,2.10
2023-05-08T11:31:16.632Z,1.90
2023-05-08T11:36:23.112Z,1.90
2023-05-08T11:41:25.611Z,1.93
2023-05-08T11:46:41.497Z,2.07
2023-05-08T11:51:47.021Z,1.60
2023-05-08T11:56:51.613Z,1.60
2023-05-08T12:06:59.025Z,1.70
2023-05-08T12:12:00.797Z,1.90
2023-05-08T12:17:03.695Z,2.07
2023-05-08T12:22:05.626Z,1.80
2023-05-08T12:27:07.766Z,2.00
2023-05-08T12:32:10.989Z,1.70
2023-05-08T12:37:26.857Z,1.80
2023-05-08T12:42:51.782Z,1.90
2023-05-08T12:48:04.038Z,2.03
2023-05-08T12:53:11.726Z,1.57
2023-05-08T12:58:15.576Z,1.30
2023-05-08T13:03:30.681Z,1.60
2023-05-08T13:08:38.855Z,1.70
2023-05-08T13:13:40.734Z,1.60
2023-05-08T13:18:42.452Z,2.03
2023-05-08T13:23:44.179Z,1.50
2023-05-08T13:28:46.084Z,1.77
2023-05-08T13:33:47.895Z,1.70
2023-05-08T13:38:54.137Z,1.70
2023-05-08T13:43:55.930Z,1.80
2023-05-08T13:48:57.703Z,2.07
2023-05-08T13:53:59.438Z,1.53
2023-05-08T13:59:01.184Z,1.73
2023-05-08T14:04:03.099Z,1.50
2023-05-08T14:09:05.003Z,1.60
2023-05-08T14:14:06.853Z,1.40
2023-05-08T14:19:08.680Z,1.80
2023-05-08T14:24:10.552Z,2.10
2023-05-08T14:29:12.382Z,1.73
2023-05-08T14:34:14.220Z,1.83
2023-05-08T14:39:16.028Z,1.50
2023-05-08T14:44:17.977Z,1.57
2023-05-08T14:54:43.361Z,1.40
2023-05-08T14:59:54.159Z,2.13
2023-05-08T15:04:56.969Z,1.63
2023-05-08T15:09:58.800Z,1.87
2023-05-08T15:15:02.675Z,1.50
2023-05-08T15:20:10.600Z,1.77
2023-05-08T15:25:12.974Z,2.20
2023-05-08T15:30:15.644Z,1.80
2023-05-08T15:35:17.689Z,1.80
2023-05-08T15:40:19.678Z,1.73
2023-05-08T15:45:21.724Z,1.83
2023-05-08T15:50:23.550Z,1.67
2023-05-08T15:55:25.329Z,1.80
2023-05-08T16:00:36.804Z,2.30
2023-05-08T16:05:45.555Z,5.83
2023-05-08T16:10:48.418Z,1.83
2023-05-08T16:15:50.471Z,1.60
2023-05-08T16:20:52.266Z,1.87
2023-05-08T16:25:54.159Z,1.90
2023-05-08T16:30:56.028Z,2.00
2023-05-08T16:35:57.774Z,1.90
2023-05-08T16:41:10.021Z,2.20
2023-05-08T16:46:11.923Z,1.93
2023-05-08T16:51:14.017Z,2.50
2023-05-08T16:56:15.833Z,1.87
2023-05-08T17:01:17.680Z,2.20
2023-05-08T17:06:20.637Z,2.37
2023-05-08T17:11:22.510Z,2.43
2023-05-08T17:16:24.321Z,2.20
2023-05-08T17:21:26.208Z,3.07
2023-05-08T17:26:31.950Z,2.00
2023-05-08T17:31:33.687Z,2.00
2023-05-08T17:36:35.598Z,2.23
2023-05-08T17:41:37.323Z,2.30
2023-05-08T17:46:39.160Z,2.47
2023-05-08T17:51:44.144Z,2.07
2023-05-08T17:56:46.050Z,2.23
2023-05-08T18:01:47.842Z,2.10
2023-05-08T18:06:51.563Z,1.83
2023-05-08T18:11:55.719Z,2.00
2023-05-08T18:16:58.307Z,2.40
2023-05-08T18:22:00.122Z,2.40
2023-05-08T18:27:01.839Z,2.40
2023-05-08T18:32:04.043Z,2.00
2023-05-08T18:37:05.851Z,2.83
2023-05-08T18:42:07.870Z,2.40
2023-05-08T18:47:09.649Z,2.20
2023-05-08T18:52:11.749Z,2.23
2023-05-08T18:57:13.611Z,2.53
2023-05-08T19:02:15.340Z,2.60
2023-05-08T19:07:17.225Z,3.10
2023-05-08T19:12:19.112Z,2.27
2023-05-08T19:17:21.734Z,2.67
2023-05-08T19:22:23.637Z,2.23
2023-05-08T19:27:25.819Z,2.40
2023-05-08T19:32:28.624Z,2.77
2023-05-08T19:37:31.020Z,2.57
2023-05-08T19:42:33.052Z,2.63
2023-05-08T19:47:34.953Z,2.77
2023-05-08T19:52:36.766Z,2.70
2023-05-08T19:57:38.716Z,2.77
2023-05-08T20:02:40.591Z,3.50
2023-05-08T20:07:42.480Z,3.37
2023-05-08T20:12:44.264Z,2.83
2023-05-08T20:17:46.134Z,7.60
2023-05-08T20:22:47.967Z,2.90
2023-05-08T20:27:49.965Z,3.13
2023-05-08T20:32:52.020Z,2.93
2023-05-08T20:37:53.871Z,3.13
2023-05-08T20:42:55.833Z,3.37
2023-05-08T20:47:57.969Z,2.80
2023-05-08T20:53:00.099Z,2.53
2023-05-08T20:58:03.653Z,3.43
2023-05-08T21:03:05.971Z,2.90
2023-05-08T21:08:08.692Z,2.90
2023-05-08T21:13:17.561Z,3.00
2023-05-08T21:18:19.881Z,3.10
2023-05-08T21:23:21.837Z,3.47
2023-05-08T21:28:23.703Z,3.03
2023-05-08T21:33:25.567Z,6.03
2023-05-08T21:38:27.568Z,4.37
2023-05-08T21:43:29.523Z,3.03
2023-05-08T21:48:31.472Z,2.70
2023-05-08T21:53:33.319Z,3.97
2023-05-08T21:58:35.188Z,3.23
2023-05-08T22:03:37.131Z,2.80
2023-05-08T22:08:39.022Z,3.40
2023-05-08T22:13:41.284Z,2.70
2023-05-08T22:18:43.085Z,3.70
2023-05-08T22:23:44.961Z,3.50
2023-05-08T22:28:46.723Z,3.33
2023-05-08T22:33:48.600Z,3.10
2023-05-08T22:38:50.545Z,2.80
2023-05-08T22:41:27.554Z,3.80
2023-05-08T22:42:29.471Z,3.50
2023-05-08T22:43:31.877Z,3.22
2023-05-08T22:44:33.699Z,4.05
2023-05-08T22:45:35.741Z,3.90
2023-05-08T22:46:38.723Z,3.75
2023-05-08T22:47:41.192Z,4.13
2023-05-08T22:48:43.023Z,2.90
2023-05-08T22:49:45.074Z,3.50
2023-05-08T22:50:47.046Z,3.88
2023-05-08T22:51:50.365Z,3.97
2023-05-08T22:52:52.140Z,3.60
2023-05-08T22:53:54.980Z,3.40
2023-05-08T22:54:56.704Z,3.47
2023-05-08T22:55:58.528Z,3.65
2023-05-08T22:57:00.534Z,3.72
2023-05-08T22:58:03.147Z,3.13
2023-05-08T22:59:05.612Z,3.50
2023-05-08T23:00:08.786Z,3.83
2023-05-08T23:01:10.805Z,3.90
2023-05-08T23:02:12.563Z,3.50
2023-05-08T23:03:14.388Z,3.65
2023-05-08T23:04:16.141Z,3.63
2023-05-08T23:05:17.989Z,3.83
2023-05-08T23:06:19.810Z,3.97
2023-05-08T23:07:21.560Z,3.80
2023-05-08T23:08:23.407Z,3.00
2023-05-08T23:09:25.434Z,3.92
2023-05-08T23:10:27.164Z,3.70
2023-05-08T23:11:28.945Z,3.80
2023-05-08T23:12:30.786Z,3.85
2023-05-08T23:13:32.783Z,4.10
2023-05-08T23:14:34.542Z,3.28
2023-05-08T23:15:37.256Z,4.03
2023-05-08T23:16:39.104Z,3.70
2023-05-08T23:17:40.952Z,3.40
2023-05-08T23:18:42.760Z,3.13
2023-05-08T23:19:45.403Z,4.05
2023-05-08T23:20:47.244Z,3.05
2023-05-08T23:21:49.004Z,3.55
2023-05-08T23:22:50.865Z,3.80
2023-05-08T23:23:54.128Z,3.50
2023-05-08T23:24:56.007Z,3.50
2023-05-08T23:26:00.898Z,3.75
2023-05-08T23:27:02.767Z,3.50
2023-05-08T23:28:04.644Z,3.90
2023-05-08T23:29:06.438Z,4.07
2023-05-08T23:30:08.905Z,3.75
2023-05-08T23:31:10.867Z,3.80
2023-05-08T23:32:14.585Z,3.83
2023-05-08T23:33:16.265Z,3.60
2023-05-08T23:34:18.061Z,2.80
2023-05-08T23:35:20.022Z,3.30
2023-05-08T23:36:22.145Z,3.95
2023-05-08T23:37:23.946Z,3.53
2023-05-08T23:38:25.875Z,3.90
2023-05-08T23:39:27.751Z,4.35
2023-05-08T23:40:29.469Z,4.03
2023-05-08T23:41:32.218Z,3.90
2023-05-08T23:42:33.949Z,3.40
2023-05-08T23:43:35.853Z,3.65
2023-05-08T23:44:37.580Z,4.18
2023-05-08T23:45:39.352Z,3.38
2023-05-08T23:46:41.696Z,4.05
2023-05-08T23:47:43.585Z,4.30
2023-05-08T23:48:45.330Z,3.88
2023-05-08T23:49:47.824Z,3.40
2023-05-08T23:50:49.573Z,3.88
2023-05-08T23:51:51.584Z,3.88
2023-05-08T23:52:53.274Z,4.00
2023-05-08T23:53:55.325Z,3.92
2023-05-08T23:54:57.078Z,4.25
2023-05-08T23:55:58.808Z,4.10
2023-05-08T23:57:00.656Z,3.58
2023-05-08T23:58:02.714Z,4.38
2023-05-08T23:59:04.499Z,3.60
